Time;durP1;ratioP1;P1;durP2;ratioP2;P2;SDS_P1;SDS_P2;PMS_P1;PMS_P2;Temp;Humidity;BMP_temperature;BMP_pressure;BME280_temperature;BME280_humidity;BME280_pressure;Samples;Min_cycle;Max_cycle;Signal;HPM_P1;HPM_P2
2022/05/23 00:01:41;;;;;;;7.13;2.42;;;;;;;20.87;58.42;99963.19;4979155;28;20054;-70
2022/05/23 00:04:08;;;;;;;5.53;2.72;;;;;;;20.76;58.70;99973.56;4977411;28;20062;-69
2022/05/23 00:06:36;;;;;;;5.05;2.20;;;;;;;20.79;58.51;99978.38;4961753;28;20066;-69
2022/05/23 00:09:05;;;;;;;4.68;1.90;;;;;;;20.51;58.87;99989.53;4979264;28;20055;-68
2022/05/23 00:11:32;;;;;;;5.53;1.90;;;;;;;20.56;59.01;99975.94;4961912;28;20054;-70
2022/05/23 00:13:59;;;;;;;4.63;1.95;;;;;;;20.55;59.33;99982.75;4978972;28;20066;-69
2022/05/23 00:16:33;;;;;;;5.85;2.55;;;;;;;20.82;58.66;99969.16;4961345;28;20058;-64
2022/05/23 00:19:00;;;;;;;6.25;2.40;;;;;;;20.77;58.28;99959.16;4979715;28;20062;-64
2022/05/23 00:21:28;;;;;;;7.70;2.40;;;;;;;20.61;58.90;99969.94;4977218;28;20047;-64
2022/05/23 00:23:55;;;;;;;11.05;5.00;;;;;;;20.74;58.95;99957.19;4978799;28;20043;-65
2022/05/23 00:26:23;;;;;;;23.17;13.93;;;;;;;20.61;58.89;99955.16;4978833;28;20046;-63
2022/05/23 00:28:50;;;;;;;15.93;10.68;;;;;;;20.67;59.23;99948.78;4977380;28;20425;-65
2022/05/23 00:31:18;;;;;;;10.50;5.75;;;;;;;20.90;58.30;99951.16;4993625;28;20136;-65
2022/05/23 00:36:33;;;;;;;6.32;2.20;;;;;;;20.36;60.18;99940.34;4976985;28;20046;-64
2022/05/23 00:39:02;;;;;;;5.28;2.05;;;;;;;20.71;59.43;99929.19;4977188;28;20050;-65
2022/05/23 00:44:34;;;;;;;5.55;1.90;;;;;;;20.64;59.57;99921.56;4978212;28;20058;-64
2022/05/23 00:47:17;;;;;;;7.82;2.13;;;;;;;20.74;59.04;99908.78;4978252;28;20062;-65
2022/05/23 00:49:44;;;;;;;8.05;2.20;;;;;;;20.60;59.61;99909.59;4977170;28;20058;-65
2022/05/23 00:52:29;;;;;;;6.35;2.28;;;;;;;20.33;60.14;99905.56;4978228;28;20047;-64
2022/05/23 00:54:58;;;;;;;7.10;2.10;;;;;;;20.65;59.62;99902.78;4961108;28;20058;-65
2022/05/23 00:57:28;;;;;;;7.28;2.38;;;;;;;20.80;59.12;99905.19;4976595;28;20065;-65
2022/05/23 00:59:56;;;;;;;5.82;2.33;;;;;;;20.97;58.62;99903.56;4978181;28;20054;-64
2022/05/23 01:02:23;;;;;;;3.95;1.92;;;;;;;21.03;58.33;99910.38;4976283;28;20046;-64
2022/05/23 01:04:51;;;;;;;5.72;2.33;;;;;;;20.93;58.18;99906.38;4977972;28;20062;-64
2022/05/23 01:07:19;;;;;;;6.90;2.30;;;;;;;21.02;57.97;99884.41;4976531;28;20406;-64
2022/05/23 01:09:48;;;;;;;5.65;1.92;;;;;;;20.94;58.52;99868.75;4944709;28;20059;-65
2022/05/23 01:12:15;;;;;;;5.15;1.77;;;;;;;20.79;58.52;99869.19;4960465;28;20509;-65
2022/05/23 01:14:56;;;;;;;4.30;1.80;;;;;;;20.86;58.22;99858.78;4992411;28;20054;-64
2022/05/23 01:17:24;;;;;;;5.32;2.20;;;;;;;20.75;58.22;99848.78;4960213;28;20058;-66
2022/05/23 01:19:52;;;;;;;5.80;2.03;;;;;;;20.29;59.71;99837.66;4976413;28;20047;-64
2022/05/23 01:22:28;;;;;;;5.38;2.20;;;;;;;20.35;59.79;99836.06;4976032;28;20047;-64
2022/05/23 01:25:23;;;;;;;4.63;2.00;;;;;;;20.53;59.65;99817.28;4959785;28;20054;-63
2022/05/23 01:27:52;;;;;;;7.10;2.00;;;;;;;20.31;59.78;99809.28;4976788;28;20081;-65
2022/05/23 01:30:20;;;;;;;4.22;1.98;;;;;;;20.57;59.18;99811.66;4972344;28;20047;-64
2022/05/23 01:33:10;;;;;;;6.28;2.00;;;;;;;20.41;59.83;99812.09;4970300;28;20062;-65
2022/05/23 01:35:38;;;;;;;4.43;1.92;;;;;;;20.75;58.75;99818.00;4960607;28;20065;-66
2022/05/23 01:38:06;;;;;;;5.65;1.92;;;;;;;20.67;58.77;99811.66;4977073;28;20063;-65
2022/05/23 01:40:47;;;;;;;9.65;1.90;;;;;;;20.75;58.45;99790.03;4959288;28;20059;-65
2022/05/23 01:43:20;;;;;;;6.55;2.00;;;;;;;20.80;57.95;99790.41;4974995;28;20043;-65
2022/05/23 01:46:04;;;;;;;5.95;2.30;;;;;;;20.85;58.15;99780.81;4998180;28;20065;-65
2022/05/23 01:49:01;;;;;;;7.85;2.00;;;;;;;20.77;58.22;99768.03;4977184;28;20054;-65
2022/05/23 01:51:28;;;;;;;5.22;2.05;;;;;;;20.89;57.97;99759.19;4972794;28;20083;-64
2022/05/23 01:53:55;;;;;;;5.22;1.90;;;;;;;20.85;57.91;99758.41;4975581;28;20051;-66
2022/05/23 01:56:24;;;;;;;4.88;1.80;;;;;;;20.45;58.60;99762.50;4959263;28;20055;-64
2022/05/23 02:01:46;;;;;;;5.88;1.83;;;;;;;20.43;59.19;99748.16;4976894;28;20069;-65
2022/05/23 02:04:27;;;;;;;6.20;2.10;;;;;;;20.54;59.06;99743.31;4991556;28;20054;-64
2022/05/23 02:06:56;;;;;;;4.82;1.65;;;;;;;20.67;59.11;99744.47;4974452;28;20474;-65
2022/05/23 02:09:32;;;;;;;7.05;1.80;;;;;;;20.77;58.03;99740.84;4959046;28;20050;-65
2022/05/23 02:12:13;;;;;;;6.27;1.90;;;;;;;20.71;58.50;99741.66;4965670;28;20051;-64
2022/05/23 02:14:40;;;;;;;6.75;1.88;;;;;;;20.84;58.05;99740.00;4989357;28;20051;-64
2022/05/23 02:17:20;;;;;;;;;;;;;;;20.85;58.14;99753.59;4959898;28;20059;-64
2022/05/23 02:19:47;;;;;;;7.78;1.83;;;;;;;20.75;58.41;99762.84;4991382;28;20369;-65
2022/05/23 02:22:18;;;;;;;7.00;2.10;;;;;;;20.83;58.49;99767.22;4975200;28;20043;-64
2022/05/23 02:24:51;;;;;;;3.58;1.60;;;;;;;20.83;58.26;99772.81;4958833;28;20055;-64
2022/05/23 02:27:19;;;;;;;6.90;2.00;;;;;;;20.79;58.39;99769.22;4974996;28;20057;-65
2022/05/23 02:29:47;;;;;;;7.45;1.90;;;;;;;20.75;58.45;99768.44;4974850;28;20047;-65
2022/05/23 02:32:15;;;;;;;4.50;1.60;;;;;;;20.73;58.12;99768.03;4974918;28;20123;-65
2022/05/23 02:34:43;;;;;;;4.60;1.80;;;;;;;20.80;58.64;99764.44;4974373;28;20050;-65
2022/05/23 02:37:11;;;;;;;5.70;2.20;;;;;;;20.81;57.90;99774.41;4974752;28;20081;-64
2022/05/23 02:39:48;;;;;;;5.18;2.20;;;;;;;20.79;57.99;99772.03;4991501;28;20378;-65
2022/05/23 02:42:17;;;;;;;5.43;2.00;;;;;;;20.74;58.17;99777.25;4975005;28;20055;-65
2022/05/23 02:44:46;;;;;;;3.45;1.63;;;;;;;20.67;58.73;99780.06;4971708;28;20058;-65
2022/05/23 02:47:19;;;;;;;6.78;1.92;;;;;;;20.73;58.50;99767.25;4943836;28;20070;-65
2022/05/23 02:49:48;;;;;;;4.10;1.77;;;;;;;20.75;58.56;99765.63;4990835;28;20051;-65
2022/05/23 02:52:36;;;;;;;5.00;1.92;;;;;;;20.58;58.72;99766.50;4975939;28;20058;-65
2022/05/23 02:55:11;;;;;;;4.30;1.77;;;;;;;20.82;58.50;99757.22;4961400;28;20058;-65
2022/05/23 02:57:39;;;;;;;5.38;2.00;;;;;;;20.74;58.67;99758.47;4978135;28;20066;-64
2022/05/23 03:00:15;;;;;;;5.80;2.10;;;;;;;20.78;58.65;99767.63;4995016;28;20058;-64
2022/05/23 03:03:03;;;;;;;4.97;2.00;;;;;;;20.77;58.43;99757.63;4978882;28;20073;-64
2022/05/23 03:05:47;;;;;;;5.90;1.80;;;;;;;20.73;58.43;99772.84;4962518;28;20543;-65
2022/05/23 03:08:17;;;;;;;6.20;1.90;;;;;;;20.54;59.34;99776.09;4979758;28;20059;-65
2022/05/23 03:10:46;;;;;;;4.90;1.90;;;;;;;20.74;58.97;99785.63;4979072;28;20510;-65
2022/05/23 03:13:14;;;;;;;5.60;1.77;;;;;;;20.69;58.82;99794.44;4978624;28;20066;-65
2022/05/23 03:15:41;;;;;;;6.80;2.20;;;;;;;20.75;59.06;99796.44;4979549;28;20066;-65
2022/05/23 03:18:09;;;;;;;5.38;2.42;;;;;;;20.75;58.66;99785.22;4979870;28;20058;-66
2022/05/23 03:20:41;;;;;;;3.90;1.80;;;;;;;20.72;59.10;99783.25;4978748;28;20058;-66
2022/05/23 03:29:02;;;;;;;5.93;2.28;;;;;;;20.71;59.13;99762.03;4922633;29;20055;-65
2022/05/23 03:31:30;;;;;;;4.80;2.13;;;;;;;20.86;58.82;99748.81;4958375;28;20057;-66
2022/05/23 03:33:58;;;;;;;10.55;2.03;;;;;;;20.81;59.15;99741.63;4993990;28;20052;-64
2022/05/23 03:36:25;;;;;;;7.20;2.15;;;;;;;20.77;58.90;99726.84;4977492;28;20054;-65
2022/05/23 03:38:53;;;;;;;6.30;2.60;;;;;;;20.92;58.54;99722.00;4978191;28;20050;-65
2022/05/23 03:41:20;;;;;;;3.95;2.08;;;;;;;20.82;58.99;99736.81;4978151;28;20059;-65
2022/05/23 03:43:50;;;;;;;11.00;2.78;;;;;;;20.75;58.90;99729.25;4977990;28;20055;-67
2022/05/23 03:46:17;;;;;;;8.52;2.50;;;;;;;20.67;59.90;99721.28;4993466;28;20489;-70
2022/05/23 03:48:45;;;;;;;5.53;2.50;;;;;;;20.56;60.19;99718.53;5010461;28;20051;-70
2022/05/23 03:51:13;;;;;;;6.70;2.35;;;;;;;20.41;61.19;99736.56;4993985;28;20051;-70
2022/05/23 03:53:40;;;;;;;5.72;2.53;;;;;;;20.35;61.50;99726.97;4978166;28;20051;-65
2022/05/23 03:56:10;;;;;;;5.15;2.10;;;;;;;20.43;61.48;99714.59;5010500;28;20413;-64
2022/05/23 03:58:51;;;;;;;14.45;2.63;;;;;;;20.35;62.03;99726.97;4977865;28;20054;-66
2022/05/23 04:01:25;;;;;;;5.68;2.25;;;;;;;20.47;61.49;99723.75;5009955;28;20055;-65
2022/05/23 04:03:59;;;;;;;5.25;2.10;;;;;;;20.42;61.70;99712.97;4992733;28;20057;-69
2022/05/23 04:06:38;;;;;;;4.70;2.00;;;;;;;20.45;61.60;99706.56;4977468;28;20055;-69
2022/05/23 04:09:07;;;;;;;6.97;2.45;;;;;;;20.56;61.04;99687.75;4976890;28;20059;-70
2022/05/23 04:11:42;;;;;;;6.03;2.13;;;;;;;20.54;61.59;99667.00;4993723;28;20050;-69
2022/05/23 04:14:10;;;;;;;4.30;1.85;;;;;;;20.58;61.22;99674.16;4994209;28;20517;-69
2022/05/23 04:16:43;;;;;;;;;;;;;;;20.33;62.19;99667.06;5009893;28;20065;-64
2022/05/23 04:19:10;;;;;;;8.27;2.05;;;;;;;20.37;62.05;99667.81;4977485;28;19922;-72
2022/05/23 04:21:46;;;;;;;8.45;2.50;;;;;;;20.39;61.84;99665.41;4993696;28;20051;-70
2022/05/23 04:24:21;;;;;;;5.47;2.15;;;;;;;20.42;62.43;99659.00;4993532;28;20051;-69
2022/05/23 04:26:57;;;;;;;6.35;2.25;;;;;;;20.36;62.18;99641.06;4993669;28;20398;-69
2022/05/23 04:29:28;;;;;;;7.03;2.55;;;;;;;20.40;62.67;99641.84;5009421;28;20391;-69
2022/05/23 04:31:56;;;;;;;5.72;2.53;;;;;;;20.33;63.09;99637.06;5009522;28;20047;-71
2022/05/23 04:37:20;;;;;;;6.20;2.83;;;;;;;20.32;63.63;99626.28;5009388;28;20066;-70
2022/05/23 04:39:49;;;;;;;6.47;2.40;;;;;;;19.98;65.32;99623.16;4993453;28;20131;-70
2022/05/23 04:42:16;;;;;;;6.90;3.00;;;;;;;19.83;66.09;99633.56;5009112;28;20065;-65
2022/05/23 04:44:44;;;;;;;7.75;2.90;;;;;;;19.85;65.81;99638.75;5003945;28;20430;-70
2022/05/23 04:50:04;;;;;;;9.38;2.83;;;;;;;20.07;65.47;99635.53;4970898;28;20498;-69
2022/05/23 04:52:42;;;;;;;5.32;2.50;;;;;;;20.13;65.23;99644.31;4976774;28;20066;-66
2022/05/23 04:55:13;;;;;;;8.05;2.83;;;;;;;20.30;64.96;99631.47;4993036;28;20505;-66
2022/05/23 04:57:40;;;;;;;5.40;2.45;;;;;;;20.23;64.90;99623.91;4960846;28;20058;-65
2022/05/23 05:00:10;;;;;;;8.60;2.55;;;;;;;20.19;65.06;99633.53;4976278;28;20449;-65
2022/05/23 05:02:48;;;;;;;5.50;2.20;;;;;;;20.19;64.85;99608.38;4976821;28;20054;-65
2022/05/23 05:05:18;;;;;;;10.18;2.95;;;;;;;19.99;66.18;99606.00;4976414;28;20521;-65
2022/05/23 05:07:51;;;;;;;6.93;3.10;;;;;;;19.94;66.43;99592.44;4992878;28;20406;-65
2022/05/23 05:10:21;;;;;;;10.15;3.03;;;;;;;19.61;67.62;99601.28;4993066;28;20398;-65
2022/05/23 05:12:52;;;;;;;;;;;;;;;19.70;67.58;99587.66;4993418;28;20066;-65
2022/05/23 05:15:23;;;;;;;7.45;2.85;;;;;;;19.75;67.12;99594.88;4991416;28;20300;-65
2022/05/23 05:17:52;;;;;;;;;;;;;;;19.85;66.79;99620.00;4992545;28;20410;-65
2022/05/23 05:20:20;;;;;;;7.28;2.53;;;;;;;20.02;66.15;99618.34;4976489;28;19929;-65
2022/05/23 05:22:59;;;;;;;5.47;2.55;;;;;;;20.13;66.14;99599.56;4962184;28;20046;-65
2022/05/23 05:25:33;;;;;;;7.53;2.80;;;;;;;19.99;66.36;99580.84;4976279;28;20047;-70
2022/05/23 05:28:07;;;;;;;5.90;2.63;;;;;;;19.86;67.09;99584.44;4992327;28;20077;-70
2022/05/23 05:30:48;;;;;;;5.10;2.70;;;;;;;20.20;65.88;99582.00;4976141;28;20054;-71
2022/05/23 05:33:17;;;;;;;;;;;;;;;20.40;65.12;99578.28;4976725;28;20422;-65
2022/05/23 05:35:50;;;;;;;10.13;2.95;;;;;;;20.47;65.01;99581.06;4992126;28;20107;-70
2022/05/23 05:38:20;;;;;;;6.63;2.72;;;;;;;20.37;65.30;99614.69;4977169;28;20059;-70
2022/05/23 05:40:55;;;;;;;10.55;3.10;;;;;;;20.35;65.90;99637.47;4959949;28;20387;-66
2022/05/23 05:43:26;;;;;;;7.30;3.40;;;;;;;20.51;65.30;99651.00;4976034;28;20062;-65
2022/05/23 05:46:01;;;;;;;7.78;3.28;;;;;;;20.55;65.27;99629.41;4974740;28;20055;-65
2022/05/23 05:48:41;;;;;;;8.98;3.25;;;;;;;20.59;65.64;99624.59;4976341;28;20051;-66
2022/05/23 05:51:11;;;;;;;7.67;3.37;;;;;;;20.45;66.27;99617.03;5008019;28;20059;-65
2022/05/23 05:53:48;;;;;;;9.73;3.60;;;;;;;20.40;67.07;99616.69;5007944;28;20425;-70
2022/05/23 05:56:24;;;;;;;7.40;3.03;;;;;;;20.30;67.13;99595.13;4975465;28;20061;-70
2022/05/23 05:58:51;;;;;;;8.45;3.33;;;;;;;20.42;66.54;99594.66;4991810;28;20050;-70
2022/05/23 06:01:19;;;;;;;7.65;3.10;;;;;;;20.52;65.94;99594.63;5007755;28;20043;-69
2022/05/23 06:03:46;;;;;;;9.65;2.67;;;;;;;20.57;65.51;99604.63;4975787;28;20047;-70
2022/05/23 06:12:00;;;;;;;13.32;3.30;;;;;;;20.73;65.73;99621.72;4991578;28;20046;-70
2022/05/23 06:14:30;;;;;;;7.93;3.70;;;;;;;20.72;65.82;99629.31;5007619;28;20522;-70
2022/05/23 06:17:06;;;;;;;9.15;3.35;;;;;;;20.73;65.58;99627.31;4991441;28;20061;-64
2022/05/23 06:19:44;;;;;;;8.93;3.50;;;;;;;20.77;65.98;99626.09;4975323;28;20054;-70
2022/05/23 06:22:25;;;;;;;9.50;3.42;;;;;;;20.66;66.01;99621.75;4975038;28;20132;-70
2022/05/23 06:25:04;;;;;;;8.38;3.65;;;;;;;20.74;65.82;99604.53;4976755;28;20043;-65
2022/05/23 06:27:33;;;;;;;9.60;3.00;;;;;;;20.82;65.30;99606.06;4991391;28;20054;-66
2022/05/23 06:30:22;;;;;;;8.38;3.13;;;;;;;20.69;66.31;99588.16;4987422;28;20406;-69
2022/05/23 06:32:56;;;;;;;8.55;3.25;;;;;;;20.73;66.10;99593.75;4991389;28;20062;-66
2022/05/23 06:35:40;;;;;;;7.93;3.00;;;;;;;20.74;66.15;99570.13;4975030;28;20414;-66
2022/05/23 06:38:09;;;;;;;7.53;3.60;;;;;;;20.71;66.42;99563.34;4991368;28;20054;-70
2022/05/23 06:40:50;;;;;;;7.40;3.13;;;;;;;20.77;66.58;99547.72;4976585;28;20390;-64
2022/05/23 06:43:38;;;;;;;10.85;3.63;;;;;;;20.69;66.85;99559.38;4976284;28;20052;-70
2022/05/23 06:46:24;;;;;;;10.43;3.10;;;;;;;20.78;66.35;99566.09;4971601;28;20047;-69
2022/05/23 06:49:10;;;;;;;7.28;3.08;;;;;;;20.86;66.42;99559.25;4988831;28;20352;-70
2022/05/23 06:52:01;;;;;;;7.43;3.40;;;;;;;20.97;65.87;99548.00;4976253;28;20050;-71
2022/05/23 06:54:36;;;;;;;11.15;2.97;;;;;;;21.01;65.96;99555.16;4990733;28;20054;-70
2022/05/23 06:57:11;;;;;;;10.25;3.60;;;;;;;21.03;65.87;99552.75;4959914;28;20059;-69
2022/05/23 06:59:39;;;;;;;11.32;4.07;;;;;;;21.15;65.91;99555.06;4974896;28;20054;-65
2022/05/23 07:02:09;;;;;;;10.68;3.80;;;;;;;21.05;66.11;99544.75;4958772;28;20417;-65
2022/05/23 07:13:46;;;;;;;10.73;3.72;;;;;;;21.19;66.37;99552.25;4990476;28;20046;-65
2022/05/23 07:16:16;;;;;;;11.45;4.28;;;;;;;21.06;66.69;99557.53;4973560;28;20070;-66
2022/05/23 07:18:47;;;;;;;12.40;3.45;;;;;;;21.01;67.26;99545.97;4990952;28;20413;-65
2022/05/23 07:21:28;;;;;;;10.45;3.85;;;;;;;20.91;67.87;99553.22;4974546;28;20050;-66
2022/05/23 07:24:16;;;;;;;10.18;4.00;;;;;;;20.75;68.84;99560.53;4968355;28;20077;-66
2022/05/23 07:26:54;;;;;;;10.10;4.00;;;;;;;20.83;68.30;99570.47;4972573;28;20066;-66
2022/05/23 07:29:25;;;;;;;16.80;4.63;;;;;;;20.89;68.46;99568.81;4974718;28;20496;-65
2022/05/23 07:31:55;;;;;;;10.07;4.03;;;;;;;20.85;68.85;99562.47;4974427;28;20058;-66
2022/05/23 07:34:23;;;;;;;11.20;4.60;;;;;;;20.83;69.27;99567.69;4974211;28;20057;-66
2022/05/23 07:36:50;;;;;;;11.07;4.70;;;;;;;20.89;68.72;99577.22;4974119;28;20055;-65
2022/05/23 07:39:18;;;;;;;15.60;4.63;;;;;;;21.00;68.33;99580.78;4975866;28;20061;-67
2022/05/23 07:41:50;;;;;;;13.68;4.40;;;;;;;21.02;68.70;99579.19;4962613;28;20491;-65
2022/05/23 07:44:22;;;;;;;12.63;4.88;;;;;;;21.00;68.74;99550.00;4991298;28;20047;-65
2022/05/23 07:46:53;;;;;;;9.95;4.07;;;;;;;21.11;68.62;99520.69;4976673;28;20055;-65
2022/05/23 07:49:22;;;;;;;13.77;5.05;;;;;;;21.29;68.65;99500.16;4994182;28;20050;-65
2022/05/23 07:52:02;;;;;;;10.90;3.83;;;;;;;21.48;67.82;99475.13;4984846;28;20046;-65
2022/05/23 08:00:37;;;;;;;9.48;4.50;;;;;;;21.60;67.24;99497.00;4921751;29;20100;-65
2022/05/23 08:03:17;;;;;;;9.40;4.93;;;;;;;21.70;67.72;99503.72;4960325;28;20063;-65
2022/05/23 08:05:57;;;;;;;11.98;4.38;;;;;;;21.74;67.51;99496.84;4989961;28;20424;-65
2022/05/23 08:08:26;;;;;;;12.07;4.82;;;;;;;21.80;67.50;99503.63;4960929;28;20490;-66
2022/05/23 08:10:53;;;;;;;16.05;4.80;;;;;;;21.89;67.94;99500.31;4977598;28;20085;-66
2022/05/23 08:13:21;;;;;;;16.80;4.90;;;;;;;21.89;67.76;99501.13;4977592;28;20046;-66
2022/05/23 08:15:48;;;;;;;16.13;4.95;;;;;;;21.65;70.52;99507.78;4961254;28;20046;-65
2022/05/23 08:18:18;;;;;;;13.13;5.63;;;;;;;21.73;69.35;99508.47;4977376;28;20053;-70
2022/05/23 08:20:56;;;;;;;10.90;5.07;;;;;;;21.64;70.04;99525.78;4978798;28;20057;-69
2022/05/23 08:23:30;;;;;;;12.88;5.53;;;;;;;21.59;70.74;99533.84;4977700;28;20047;-66
2022/05/23 08:26:04;;;;;;;16.50;5.15;;;;;;;21.59;70.20;99554.28;4977440;28;20054;-66
2022/05/23 08:28:38;;;;;;;14.32;4.93;;;;;;;21.45;71.01;99548.00;4993380;28;20399;-66
2022/05/23 08:31:06;;;;;;;9.90;4.95;;;;;;;21.30;72.19;99544.56;4976833;28;20046;-64
2022/05/23 08:33:42;;;;;;;12.98;5.25;;;;;;;21.13;72.71;99542.69;4993753;28;20047;-65
2022/05/23 08:36:19;;;;;;;11.07;4.88;;;;;;;21.23;72.93;99547.41;4961075;28;20047;-65
2022/05/23 08:38:47;;;;;;;13.45;5.40;;;;;;;21.30;71.56;99533.34;4976873;28;20051;-71
2022/05/23 08:41:29;;;;;;;13.05;5.38;;;;;;;21.37;72.21;99533.28;4972913;28;20050;-71
2022/05/23 08:44:44;;;;;;;11.45;5.43;;;;;;;21.48;70.31;99528.34;4993820;28;20057;-70
2022/05/23 08:47:17;;;;;;;12.13;4.80;;;;;;;21.35;71.36;99537.69;4927150;28;20506;-69
2022/05/23 08:49:47;;;;;;;9.60;5.30;;;;;;;21.43;71.02;99536.44;4961620;28;20059;-70
2022/05/23 08:52:19;;;;;;;8.75;4.68;;;;;;;21.24;71.84;99540.59;4976618;28;20081;-70
2022/05/23 08:54:57;;;;;;;18.73;5.10;;;;;;;20.81;73.34;99548.50;4977613;28;20066;-71
2022/05/23 08:57:55;;;;;;;16.40;5.87;;;;;;;21.06;71.63;99543.53;4979852;28;20055;-69
2022/05/23 09:00:35;;;;;;;15.27;5.43;;;;;;;21.15;71.87;99540.25;4978109;28;20050;-69
2022/05/23 09:03:07;;;;;;;14.75;6.03;;;;;;;20.98;72.47;99544.81;4976933;28;20431;-70
2022/05/23 09:05:43;;;;;;;12.65;5.88;;;;;;;21.14;71.18;99542.28;4976917;28;20047;-70
2022/05/23 09:08:41;;;;;;;11.23;5.47;;;;;;;21.09;70.51;99545.53;4978096;28;20057;-69
2022/05/23 09:11:36;;;;;;;16.90;5.97;;;;;;;20.90;71.80;99554.41;4945086;28;20061;-69
2022/05/23 09:14:06;;;;;;;11.48;5.30;;;;;;;20.46;73.05;99557.09;4953511;28;20061;-72
2022/05/23 09:16:40;;;;;;;10.68;4.57;;;;;;;20.70;72.15;99544.97;4960560;28;20051;-71
2022/05/23 09:19:24;;;;;;;14.35;5.88;;;;;;;20.34;73.46;99549.19;4960461;28;20051;-71
2022/05/23 09:24:53;;;;;;;9.40;5.30;;;;;;;19.82;76.06;99538.97;4962884;28;20065;-71
2022/05/23 09:27:25;;;;;;;10.73;4.85;;;;;;;20.45;73.71;99546.31;4977173;28;20053;-71
2022/05/23 09:29:55;;;;;;;8.90;4.82;;;;;;;20.39;73.63;99547.94;4960108;28;20050;-72
2022/05/23 09:32:25;;;;;;;12.27;4.93;;;;;;;20.81;71.64;99542.09;4977232;28;20047;-70
2022/05/23 09:34:57;;;;;;;22.30;5.38;;;;;;;20.43;71.82;99535.53;4977149;28;20061;-71
2022/05/23 09:37:30;;;;;;;11.32;5.40;;;;;;;20.32;73.34;99542.38;4976843;28;20063;-71
2022/05/23 09:39:58;;;;;;;9.07;4.43;;;;;;;20.21;73.28;99536.84;4960054;28;20059;-71
2022/05/23 09:48:21;;;;;;;8.60;6.03;;;;;;;20.00;73.12;99528.50;4976866;28;20081;-70
2022/05/23 09:51:01;;;;;;;10.77;5.18;;;;;;;19.77;74.66;99525.41;4991725;28;20062;-70
2022/05/23 09:53:32;;;;;;;14.93;6.20;;;;;;;20.07;73.97;99543.25;4976934;28;20054;-70
2022/05/23 09:56:23;;;;;;;12.88;6.60;;;;;;;19.68;74.26;99542.56;4959114;28;20047;-70
2022/05/23 09:58:51;;;;;;;14.70;7.70;;;;;;;19.55;74.25;99533.03;4959712;28;20047;-72
2022/05/23 10:01:31;;;;;;;11.93;6.70;;;;;;;19.58;73.19;99540.59;4959300;28;20529;-70
2022/05/23 10:03:59;;;;;;;12.32;5.70;;;;;;;19.40;73.72;99541.84;4976841;28;20051;-70
2022/05/23 10:06:46;;;;;;;11.18;6.53;;;;;;;19.15;75.41;99533.44;4976611;28;20426;-71
2022/05/23 10:09:30;;;;;;;11.48;6.80;;;;;;;19.08;75.25;99528.66;4991288;28;20073;-72
2022/05/23 10:12:20;;;;;;;11.90;6.18;;;;;;;19.25;75.28;99529.84;4976842;28;20406;-71
2022/05/23 10:14:51;;;;;;;11.48;6.28;;;;;;;19.72;74.16;99529.41;4959225;28;20073;-71
2022/05/23 10:17:31;;;;;;;15.07;8.68;;;;;;;20.19;71.92;99528.06;4959643;28;20043;-70
2022/05/23 10:20:17;;;;;;;;;;;;;;;20.50;70.24;99520.72;4944779;28;20081;-72
2022/05/23 10:23:00;;;;;;;12.98;7.07;;;;;;;20.66;69.07;99538.59;4976443;28;19926;-73
2022/05/23 10:25:41;;;;;;;14.30;6.85;;;;;;;20.67;69.00;99529.00;4959701;28;20061;-72
2022/05/23 10:28:13;;;;;;;10.38;7.00;;;;;;;20.19;70.32;99530.84;4959740;28;20050;-72
2022/05/23 10:30:55;;;;;;;17.05;7.28;;;;;;;20.33;71.14;99532.81;4991460;28;20055;-72
2022/05/23 10:33:27;;;;;;;14.27;6.75;;;;;;;20.17;71.58;99536.06;4977112;28;20062;-72
2022/05/23 10:36:04;;;;;;;13.07;7.45;;;;;;;20.32;70.56;99528.41;4974373;28;20054;-71
2022/05/23 10:42:09;;;;;;;14.82;5.80;;;;;;;20.54;70.77;99536.25;4976951;28;20046;-71
2022/05/23 10:44:41;;;;;;;14.90;7.10;;;;;;;20.71;70.31;99535.34;4961835;28;20042;-72
2022/05/23 10:47:36;;;;;;;12.80;7.53;;;;;;;20.10;71.85;99528.47;4976361;28;20045;-73
2022/05/23 10:50:15;;;;;;;10.82;7.40;;;;;;;19.99;72.46;99533.31;4967563;28;20059;-71
2022/05/23 10:52:44;;;;;;;13.48;7.10;;;;;;;19.98;72.77;99519.72;4975909;28;20058;-71
2022/05/23 10:55:16;;;;;;;10.30;6.47;;;;;;;20.27;71.64;99514.84;4976234;28;20054;-70
2022/05/23 10:57:52;;;;;;;15.00;7.85;;;;;;;19.70;73.65;99522.63;4959003;28;20055;-69
2022/05/23 11:00:25;;;;;;;13.43;7.53;;;;;;;20.01;73.50;99527.31;4943169;28;20232;-71
2022/05/23 11:03:00;;;;;;;11.50;8.07;;;;;;;19.72;73.72;99539.75;4974867;28;20058;-72
2022/05/23 11:05:32;;;;;;;13.25;7.78;;;;;;;19.98;73.19;99539.28;4959038;28;20054;-71
2022/05/23 11:08:31;;;;;;;13.38;7.53;;;;;;;19.76;74.63;99552.53;4958516;28;20046;-71
2022/05/23 11:11:14;;;;;;;15.45;7.78;;;;;;;19.87;74.01;99546.94;4958229;28;20059;-71
2022/05/23 11:13:53;;;;;;;15.65;9.98;;;;;;;19.73;73.96;99536.59;4959027;28;20494;-71
2022/05/23 11:16:43;;;;;;;11.27;8.30;;;;;;;19.87;73.07;99527.38;4979795;28;20054;-70
2022/05/23 11:19:30;;;;;;;13.45;8.38;;;;;;;19.48;75.07;99535.84;4961973;28;20059;-70
2022/05/23 11:22:17;;;;;;;15.38;9.05;;;;;;;18.99;78.84;99538.63;4979843;28;20046;-71
2022/05/23 11:24:57;;;;;;;14.32;9.50;;;;;;;19.08;79.30;99533.44;4978710;28;20406;-72
2022/05/23 11:35:59;;;;;;;12.32;7.72;;;;;;;19.58;79.42;99532.22;4979414;28;20446;-70
2022/05/23 11:38:28;;;;;;;17.95;12.88;;;;;;;19.47;79.54;99536.25;4962057;28;20097;-70
2022/05/23 11:41:06;;;;;;;29.48;21.27;;;;;;;19.39;81.08;99532.66;4962438;28;20062;-70
2022/05/23 11:43:33;;;;;;;16.55;10.63;;;;;;;19.43;81.14;99535.44;4930868;28;20058;-70
2022/05/23 11:46:04;;;;;;;14.05;10.80;;;;;;;18.79;84.49;99543.78;4975060;28;20058;-70
2022/05/23 11:48:35;;;;;;;13.77;8.20;;;;;;;18.98;84.40;99551.00;4961928;28;20491;-71
2022/05/23 11:51:24;;;;;;;12.63;9.07;;;;;;;18.61;86.22;99554.13;4979360;28;20062;-66
2022/05/23 11:54:05;;;;;;;15.67;10.37;;;;;;;18.82;85.87;99558.94;4994300;28;20074;-66
2022/05/23 11:56:44;;;;;;;19.92;13.55;;;;;;;18.55;84.50;99541.75;4979446;28;20297;-72
2022/05/23 11:59:32;;;;;;;22.13;12.65;;;;;;;18.94;83.68;99553.78;4979123;28;20477;-71
2022/05/23 12:02:08;;;;;;;17.20;11.88;;;;;;;19.01;83.23;99566.94;4978888;28;20061;-71
2022/05/23 12:04:48;;;;;;;16.45;10.85;;;;;;;18.97;81.71;99561.34;4977871;28;20062;-69
2022/05/23 12:07:42;;;;;;;14.35;9.18;;;;;;;18.56;83.94;99571.25;4976934;28;20486;-70
2022/05/23 12:10:25;;;;;;;12.75;8.82;;;;;;;18.02;86.94;99582.53;4954154;28;20450;-69
2022/05/23 12:12:58;;;;;;;13.23;9.32;;;;;;;18.32;85.13;99583.09;4961441;28;20063;-71
2022/05/23 12:15:44;;;;;;;14.00;9.20;;;;;;;17.58;87.80;99581.88;4960856;28;20059;-71
2022/05/23 12:18:20;;;;;;;13.02;9.55;;;;;;;17.36;88.80;99583.69;4979291;28;20513;-71
2022/05/23 12:20:51;;;;;;;15.80;9.27;;;;;;;16.79;91.53;99590.72;4978692;28;20046;-71
2022/05/23 12:23:32;;;;;;;;;;;;;;;16.86;93.04;99596.34;4994109;28;20057;-71
2022/05/23 12:26:12;;;;;;;14.60;9.07;;;;;;;16.67;93.25;99599.34;4978875;28;20365;-70
2022/05/23 12:28:45;;;;;;;15.68;10.05;;;;;;;16.74;94.08;99596.63;4961221;28;20047;-70
2022/05/23 12:31:16;;;;;;;16.08;10.63;;;;;;;16.76;93.47;99604.59;4977660;28;20065;-70
2022/05/23 12:33:51;;;;;;;15.73;10.30;;;;;;;16.96;92.95;99616.31;4978629;28;20414;-70
2022/05/23 12:36:21;;;;;;;13.35;9.95;;;;;;;17.01;90.82;99619.56;4961246;28;20047;-71
2022/05/23 12:38:51;;;;;;;14.82;9.15;;;;;;;17.28;87.97;99634.09;4979130;28;20070;-71
2022/05/23 12:41:37;;;;;;;;;;;;;;;16.77;89.45;99623.66;4998481;28;20077;-71
2022/05/23 12:44:26;;;;;;;13.85;10.25;;;;;;;16.85;90.85;99624.56;4997291;28;19921;-71
2022/05/23 12:46:53;;;;;;;13.93;10.15;;;;;;;17.13;90.76;99622.06;4978170;28;20490;-71
2022/05/23 12:49:49;;;;;;;15.13;11.00;;;;;;;17.36;88.57;99633.00;4977342;28;20046;-71
2022/05/23 12:52:20;;;;;;;18.10;10.57;;;;;;;17.32;87.99;99635.75;4961413;28;20055;-70
2022/05/23 12:55:11;;;;;;;13.10;9.68;;;;;;;17.63;87.44;99632.44;4978820;28;20062;-71
2022/05/23 12:58:10;;;;;;;12.10;9.25;;;;;;;17.54;85.58;99640.31;4962543;28;20410;-70
2022/05/23 13:00:44;;;;;;;13.18;8.40;;;;;;;17.52;84.79;99636.34;4993317;28;20126;-65
2022/05/23 13:03:30;;;;;;;13.88;7.85;;;;;;;17.55;84.16;99649.50;4978077;28;20061;-72
2022/05/23 13:06:10;;;;;;;12.32;8.05;;;;;;;17.37;83.95;99651.28;4977580;28;20063;-64
2022/05/23 13:08:50;;;;;;;9.40;6.78;;;;;;;17.14;83.62;99650.69;4977838;28;20561;-65